UKHH/HRK METAR and TAF weather

Enter ICAO airport designator
Station Type Date Time Source
UKHH METAR 2020/11/25 22:00 UTC NOAA

UKHH 252200Z 34002MPS 8000 OVC004 02/01 Q1020 R25/290076 NOSIG


Station Type Date Time Source
UKHH Decoded METAR 2020/11/25 22:00 UTC NOAA

Kharkiv, Ukraine (UKHH) 49-58N 036-08E 155M
Nov 25, 2020 - 05:00 PM EST / 2020.11.25 2200 UTC
Wind: from the NNW (340 degrees) at 4 MPH (4 KT):0
Visibility: 4 mile(s):0
Sky conditions: overcast
Temperature: 35 F (2 C)
Dew Point: 33 F (1 C)
Relative Humidity: 93%
Pressure (altimeter): 30.12 in. Hg (1020 hPa)
ob: UKHH 252200Z 34002MPS 8000 OVC004 02/01 Q1020 R25/290076 NOSIG
cycle: 22

Station Type Date Time Source
UKHH TAF 2020/11/25 18:48 UTC NOAA

TAF
AMD TAF
AMD UKHH 251745Z 2518/2618 30002MPS 2100 BR OVC004 TX06/2612Z TN00/2603Z
TEMPO 2518/2521 1000 SHRA BKN003 BKN015CB
TEMPO 2521/2606 0300 FG VV002
BECMG 2606/2608 23003MPS 6000 NSW BKN011

Example: see airport list